Time;durP1;ratioP1;P1;durP2;ratioP2;P2;SDS_P1;SDS_P2;PMS_P1;PMS_P2;Temp;Humidity;BMP_temperature;BMP_pressure;BME280_temperature;BME280_humidity;BME280_pressure;Samples;Min_cycle;Max_cycle;Signal;HPM_P1;HPM_P2
2021/03/16 00:01:10;;;;;;;9.60;2.83;;;5.50;67.20;;;;;;5054358;28;20060;-63
2021/03/16 00:03:49;;;;;;;8.68;3.47;;;5.50;67.10;;;;;;5069827;28;20036;-64
2021/03/16 00:06:42;;;;;;;8.75;3.00;;;5.50;67.60;;;;;;5009831;28;20085;-63
2021/03/16 00:09:08;;;;;;;7.00;2.58;;;5.40;68.00;;;;;;5005364;28;20092;-63
2021/03/16 00:11:35;;;;;;;9.85;3.25;;;5.30;68.00;;;;;;5011987;28;20507;-64
2021/03/16 00:14:02;;;;;;;5.95;2.83;;;5.30;68.30;;;;;;5010965;28;20058;-63
2021/03/16 00:16:29;;;;;;;8.48;3.75;;;5.30;68.20;;;;;;5011399;28;20093;-64
2021/03/16 00:18:56;;;;;;;9.57;3.47;;;5.20;69.10;;;;;;5011221;28;20120;-63
2021/03/16 00:21:23;;;;;;;8.00;3.58;;;5.20;68.70;;;;;;5010146;28;20525;-63
2021/03/16 00:23:49;;;;;;;9.30;3.13;;;5.10;69.50;;;;;;5007880;28;20054;-64
2021/03/16 00:26:16;;;;;;;8.80;3.53;;;5.00;69.30;;;;;;5013701;28;20209;-63
2021/03/16 00:28:42;;;;;;;7.22;3.05;;;5.10;69.60;;;;;;5009184;28;20049;-63
2021/03/16 00:31:09;;;;;;;6.65;3.00;;;5.00;69.90;;;;;;5011397;28;20568;-63
2021/03/16 00:33:36;;;;;;;9.60;3.30;;;5.00;69.30;;;;;;4993080;28;20054;-63
2021/03/16 00:36:03;;;;;;;9.07;3.20;;;5.00;70.60;;;;;;4991067;28;20042;-63
2021/03/16 00:38:29;;;;;;;8.55;3.13;;;5.00;70.30;;;;;;5016614;28;20041;-63
2021/03/16 00:40:56;;;;;;;9.48;3.00;;;4.90;69.80;;;;;;5007437;28;20042;-63
2021/03/16 00:43:22;;;;;;;8.60;3.63;;;4.90;70.50;;;;;;5028615;28;20397;-63
2021/03/16 00:45:49;;;;;;;10.65;3.90;;;4.80;70.70;;;;;;5069486;28;20423;-63
2021/03/16 00:48:19;;;;;;;8.82;3.58;;;4.80;71.40;;;;;;5069259;28;20040;-64
2021/03/16 00:50:51;;;;;;;8.40;3.95;;;4.70;70.80;;;;;;5052035;28;20044;-62
2021/03/16 00:53:18;;;;;;;7.22;3.40;;;4.70;71.60;;;;;;5046798;28;20055;-63
2021/03/16 00:55:48;;;;;;;13.73;4.35;;;4.60;71.20;;;;;;5051285;28;20123;-63
2021/03/16 00:58:23;;;;;;;13.13;4.35;;;4.60;71.10;;;;;;5069377;28;20036;-62
2021/03/16 01:00:49;;;;;;;9.65;4.13;;;4.60;71.60;;;;;;5068250;28;20035;-64
2021/03/16 01:03:16;;;;;;;10.77;3.85;;;4.60;71.80;;;;;;5048241;28;20089;-63
2021/03/16 01:05:42;;;;;;;8.05;3.70;;;4.60;71.50;;;;;;5069831;28;20047;-63
2021/03/16 01:08:09;;;;;;;10.52;3.42;;;4.50;72.00;;;;;;5050099;28;20106;-63
2021/03/16 01:10:36;;;;;;;9.00;3.50;;;4.40;71.90;;;;;;5050652;28;20036;-63
2021/03/16 01:13:02;;;;;;;9.57;3.60;;;4.40;72.30;;;;;;5069628;28;20044;-63
2021/03/16 01:15:29;;;;;;;9.55;3.38;;;4.40;72.40;;;;;;5069224;28;20460;-63
2021/03/16 01:17:55;;;;;;;10.48;4.15;;;4.40;71.70;;;;;;5070521;28;20503;-63
2021/03/16 01:20:24;;;;;;;10.95;3.55;;;4.40;72.60;;;;;;5065956;28;20156;-63
2021/03/16 01:22:51;;;;;;;5.45;2.67;;;4.30;73.00;;;;;;5044045;28;20033;-63
2021/03/16 01:25:17;;;;;;;9.43;3.38;;;4.30;73.00;;;;;;5041031;28;20044;-63
2021/03/16 01:27:44;;;;;;;9.95;3.60;;;4.20;71.90;;;;;;5065735;28;20048;-62
2021/03/16 01:30:11;;;;;;;9.70;3.45;;;4.20;72.40;;;;;;5068498;28;20037;-63
2021/03/16 01:32:38;;;;;;;8.10;3.83;;;4.20;72.40;;;;;;5068542;28;20102;-62
2021/03/16 01:35:09;;;;;;;7.35;3.40;;;4.10;72.00;;;;;;5069279;28;20036;-63
2021/03/16 01:37:39;;;;;;;7.18;2.88;;;4.10;72.40;;;;;;5052606;28;20102;-63
2021/03/16 01:40:15;;;;;;;8.55;2.70;;;4.00;72.80;;;;;;5051554;28;20121;-63
2021/03/16 01:42:42;;;;;;;7.68;3.08;;;4.00;71.90;;;;;;5069538;28;20059;-63
2021/03/16 01:45:12;;;;;;;8.43;3.88;;;4.00;72.80;;;;;;5067842;28;20407;-63
2021/03/16 01:47:40;;;;;;;5.93;2.72;;;4.00;72.60;;;;;;5052031;28;20400;-63
2021/03/16 01:50:12;;;;;;;7.68;3.13;;;4.00;72.30;;;;;;5064956;28;20044;-63
2021/03/16 01:52:39;;;;;;;8.35;3.10;;;4.00;72.30;;;;;;5056830;28;20047;-63
2021/03/16 01:55:08;;;;;;;7.18;3.03;;;3.90;72.50;;;;;;5043175;28;20044;-63
2021/03/16 01:57:38;;;;;;;10.32;3.90;;;3.90;72.60;;;;;;5069763;28;20044;-63
2021/03/16 02:00:26;;;;;;;13.07;3.67;;;3.90;73.20;;;;;;5053981;28;20048;-63
2021/03/16 02:03:12;;;;;;;11.95;3.90;;;3.80;73.60;;;;;;5070382;28;20073;-63
2021/03/16 02:05:57;;;;;;;9.90;3.42;;;3.80;73.10;;;;;;5068727;28;20118;-63
2021/03/16 02:09:14;;;;;;;10.85;4.53;;;3.80;73.80;;;;;;5069203;28;20116;-63
2021/03/16 02:12:12;;;;;;;10.73;3.92;;;3.80;73.90;;;;;;5070633;28;20059;-62
2021/03/16 02:15:05;;;;;;;13.63;4.40;;;3.80;74.90;;;;;;5066286;28;20105;-63
2021/03/16 02:17:54;;;;;;;7.25;2.72;;;3.70;74.70;;;;;;5048894;28;20499;-63
2021/03/16 02:21:06;;;;;;;7.93;3.45;;;3.80;74.90;;;;;;5068799;28;20043;-63
2021/03/16 02:24:09;;;;;;;8.73;3.73;;;3.60;74.70;;;;;;5068522;28;20055;-63
2021/03/16 02:27:16;;;;;;;9.23;3.28;;;3.50;75.30;;;;;;5055385;28;20175;-63
2021/03/16 02:30:05;;;;;;;10.32;4.13;;;3.50;75.60;;;;;;5051787;28;20079;-63
2021/03/16 02:32:52;;;;;;;17.33;5.40;;;3.50;76.10;;;;;;5048609;28;20577;-63
2021/03/16 02:35:40;;;;;;;8.55;2.75;;;3.50;76.30;;;;;;5050554;28;20486;-64
2021/03/16 02:38:30;;;;;;;12.73;4.85;;;3.50;76.50;;;;;;5055888;28;20040;-63
2021/03/16 02:41:17;;;;;;;10.00;3.67;;;3.50;76.20;;;;;;5069394;28;20055;-63
2021/03/16 02:44:04;;;;;;;12.98;4.53;;;3.50;76.40;;;;;;5069818;28;20048;-63
2021/03/16 02:46:52;;;;;;;12.75;4.38;;;3.50;76.70;;;;;;5062374;28;20134;-63
2021/03/16 02:49:40;;;;;;;26.40;9.20;;;3.50;76.80;;;;;;5049717;28;20055;-63
2021/03/16 02:52:26;;;;;;;19.83;7.40;;;3.40;77.20;;;;;;5068015;28;20055;-62
2021/03/16 02:55:11;;;;;;;40.97;14.85;;;3.50;77.00;;;;;;5071166;28;20133;-63
2021/03/16 02:57:59;;;;;;;26.02;9.68;;;3.50;78.10;;;;;;5067632;28;20051;-63
2021/03/16 03:00:46;;;;;;;18.45;6.25;;;3.50;77.80;;;;;;5068749;28;20048;-62
2021/03/16 03:03:34;;;;;;;18.58;7.18;;;3.50;77.30;;;;;;5064624;28;20572;-63
2021/03/16 03:06:20;;;;;;;11.95;4.40;;;3.50;77.90;;;;;;5068527;28;20122;-63
2021/03/16 03:09:06;;;;;;;9.75;3.60;;;3.60;77.70;;;;;;5054331;28;20059;-63
2021/03/16 03:11:51;;;;;;;10.68;3.65;;;3.60;77.50;;;;;;5069611;28;20055;-63
2021/03/16 03:14:38;;;;;;;10.68;3.97;;;3.50;77.20;;;;;;5070573;28;20064;-63
2021/03/16 03:17:26;;;;;;;8.77;3.38;;;3.50;77.40;;;;;;5047432;28;20522;-63
2021/03/16 03:20:12;;;;;;;13.35;3.33;;;3.40;77.60;;;;;;5066347;28;20506;-63
2021/03/16 03:23:18;;;;;;;10.82;3.47;;;3.50;77.80;;;;;;5066502;28;20060;-63
2021/03/16 03:26:09;;;;;;;7.43;3.10;;;3.50;77.70;;;;;;5069078;28;20063;-63
2021/03/16 03:28:56;;;;;;;8.75;3.20;;;3.40;78.00;;;;;;5048192;28;20055;-63
2021/03/16 03:31:44;;;;;;;8.85;3.45;;;3.40;78.20;;;;;;5068263;28;20059;-63
2021/03/16 03:34:34;;;;;;;10.50;3.67;;;3.30;78.00;;;;;;5067475;28;20055;-63
2021/03/16 03:37:22;;;;;;;8.32;3.58;;;3.30;78.30;;;;;;5063606;28;20052;-63
2021/03/16 03:40:08;;;;;;;11.50;4.05;;;3.30;78.40;;;;;;5072366;28;20055;-63
2021/03/16 03:42:57;;;;;;;10.82;3.75;;;3.30;79.20;;;;;;5056520;28;20126;-63
2021/03/16 03:45:43;;;;;;;9.35;3.53;;;3.30;78.30;;;;;;5050429;28;20052;-63
2021/03/16 03:48:29;;;;;;;9.48;3.88;;;3.20;78.90;;;;;;5048825;28;20048;-62
2021/03/16 03:51:19;;;;;;;8.57;3.45;;;3.20;79.20;;;;;;5050356;28;20484;-64
2021/03/16 03:54:05;;;;;;;13.65;3.97;;;3.20;79.20;;;;;;5036644;28;20059;-63
2021/03/16 03:56:51;;;;;;;9.32;3.90;;;3.20;79.50;;;;;;5050894;28;20147;-63
2021/03/16 03:59:40;;;;;;;8.85;3.58;;;3.10;79.50;;;;;;5051130;28;20047;-63
2021/03/16 04:02:26;;;;;;;8.35;3.20;;;3.10;79.90;;;;;;5052504;28;20572;-63
2021/03/16 04:05:13;;;;;;;8.70;3.67;;;3.10;80.00;;;;;;5051923;28;20060;-63
2021/03/16 04:08:02;;;;;;;8.05;3.30;;;3.10;80.20;;;;;;5049890;28;20072;-63
2021/03/16 04:10:46;;;;;;;12.02;4.25;;;3.10;79.80;;;;;;5048892;28;20051;-63
2021/03/16 04:13:32;;;;;;;9.93;3.38;;;3.10;80.00;;;;;;5048229;28;20119;-63
2021/03/16 04:16:18;;;;;;;12.65;3.97;;;3.10;80.10;;;;;;5046371;28;20504;-63
2021/03/16 04:19:04;;;;;;;8.00;3.85;;;3.00;80.00;;;;;;5044394;28;20048;-63
2021/03/16 04:21:50;;;;;;;11.38;4.03;;;3.00;81.00;;;;;;5050433;28;20047;-63
2021/03/16 04:24:36;;;;;;;9.35;3.47;;;3.00;81.40;;;;;;5051402;28;20047;-63
2021/03/16 04:27:22;;;;;;;9.52;3.33;;;3.00;81.60;;;;;;5052032;28;20048;-63
2021/03/16 04:30:08;;;;;;;12.70;4.05;;;3.00;81.30;;;;;;5053143;28;20057;-63
2021/03/16 04:32:53;;;;;;;12.95;3.83;;;2.90;81.40;;;;;;5050798;28;20596;-62
2021/03/16 04:35:38;;;;;;;12.63;4.05;;;2.90;81.70;;;;;;5052807;28;20079;-62
2021/03/16 04:38:23;;;;;;;9.60;3.60;;;2.80;82.80;;;;;;5037510;28;20134;-63
2021/03/16 04:41:09;;;;;;;10.38;4.00;;;2.80;83.10;;;;;;5052346;28;20188;-63
2021/03/16 04:43:54;;;;;;;10.90;4.00;;;2.90;82.90;;;;;;5058850;28;20056;-63
2021/03/16 04:46:39;;;;;;;12.30;4.35;;;2.80;82.90;;;;;;5068062;28;20064;-63
2021/03/16 04:49:24;;;;;;;11.95;4.40;;;2.80;83.60;;;;;;5048064;28;20059;-63
2021/03/16 04:52:09;;;;;;;13.18;4.07;;;2.80;84.00;;;;;;5055673;28;20191;-63
2021/03/16 04:54:54;;;;;;;14.00;4.47;;;2.80;84.40;;;;;;5054977;28;20105;-63
2021/03/16 04:57:40;;;;;;;12.15;4.70;;;2.90;84.00;;;;;;5072320;28;20404;-63
2021/03/16 05:00:25;;;;;;;11.57;4.57;;;2.90;84.20;;;;;;5070322;28;20052;-63
2021/03/16 05:03:10;;;;;;;12.98;4.38;;;2.90;84.30;;;;;;5070095;28;20114;-62
2021/03/16 05:05:55;;;;;;;10.98;4.40;;;2.90;83.70;;;;;;5064889;28;20411;-62
2021/03/16 05:08:40;;;;;;;8.93;3.38;;;2.90;84.20;;;;;;5068476;28;20061;-63
2021/03/16 05:11:25;;;;;;;16.08;3.83;;;2.90;84.30;;;;;;5067187;28;20137;-63
2021/03/16 05:14:11;;;;;;;10.25;3.88;;;2.90;85.10;;;;;;5064476;28;20058;-63
2021/03/16 05:16:56;;;;;;;13.82;3.85;;;2.90;84.70;;;;;;5044762;28;20079;-63
2021/03/16 05:19:41;;;;;;;12.52;3.50;;;2.90;84.90;;;;;;5070086;28;20051;-63
2021/03/16 05:22:26;;;;;;;14.30;4.43;;;3.00;85.00;;;;;;5069394;28;20574;-62
2021/03/16 05:25:12;;;;;;;15.07;4.07;;;2.90;85.40;;;;;;5069475;28;20055;-63
2021/03/16 05:27:57;;;;;;;9.18;3.42;;;3.00;86.00;;;;;;5071356;28;20133;-64
2021/03/16 05:30:42;;;;;;;14.95;5.07;;;3.10;85.70;;;;;;5070995;28;20483;-63
2021/03/16 05:33:27;;;;;;;12.75;4.38;;;3.10;85.40;;;;;;5054163;28;20059;-62
2021/03/16 05:36:12;;;;;;;14.48;5.13;;;3.10;85.10;;;;;;5061751;28;20068;-63
2021/03/16 05:38:58;;;;;;;9.27;3.88;;;3.00;85.30;;;;;;5070046;28;20404;-65
2021/03/16 05:41:43;;;;;;;14.90;4.68;;;3.00;85.60;;;;;;5064062;28;20514;-62
2021/03/16 05:44:28;;;;;;;12.88;4.57;;;3.00;86.00;;;;;;5069168;28;20056;-62
2021/03/16 05:47:14;;;;;;;17.60;5.35;;;3.00;85.80;;;;;;5060633;28;20047;-63
2021/03/16 05:50:01;;;;;;;17.85;7.40;;;3.00;86.00;;;;;;5045731;28;20508;-63
2021/03/16 05:52:47;;;;;;;19.85;6.82;;;3.10;85.70;;;;;;5062176;28;20070;-62
2021/03/16 05:55:33;;;;;;;14.95;5.00;;;3.00;85.60;;;;;;5049762;28;20431;-62
2021/03/16 05:58:23;;;;;;;14.10;4.60;;;3.00;86.00;;;;;;5057610;28;20518;-63
2021/03/16 06:01:10;;;;;;;14.27;5.05;;;3.00;86.10;;;;;;5069493;28;20059;-62
2021/03/16 06:03:55;;;;;;;15.55;5.35;;;3.10;86.60;;;;;;5064142;28;20182;-63
2021/03/16 06:06:41;;;;;;;12.25;4.30;;;3.10;86.60;;;;;;5047368;28;20056;-62
2021/03/16 06:09:27;;;;;;;11.38;4.60;;;3.10;87.00;;;;;;5044451;28;20634;-63
2021/03/16 06:12:12;;;;;;;11.85;4.85;;;3.20;86.90;;;;;;5066611;28;20106;-63
2021/03/16 06:15:19;;;;;;;15.82;5.60;;;3.20;86.70;;;;;;5069938;28;20597;-63
2021/03/16 06:18:05;;;;;;;15.88;5.47;;;3.30;86.90;;;;;;5055900;28;20060;-63
2021/03/16 06:21:02;;;;;;;12.68;4.85;;;3.40;86.80;;;;;;5065952;28;20602;-63
2021/03/16 06:23:53;;;;;;;13.38;4.78;;;3.50;86.80;;;;;;5068875;28;20055;-63
2021/03/16 06:26:47;;;;;;;14.45;5.30;;;3.60;86.60;;;;;;5068117;28;20157;-63
2021/03/16 06:29:42;;;;;;;16.02;6.00;;;3.70;86.50;;;;;;5069875;28;20072;-63
2021/03/16 06:32:37;;;;;;;15.52;5.88;;;3.80;86.00;;;;;;5053724;28;20063;-63
2021/03/16 06:35:24;;;;;;;15.07;5.25;;;3.90;86.70;;;;;;5063885;28;20126;-63
2021/03/16 06:38:10;;;;;;;12.80;4.70;;;4.10;86.40;;;;;;5063779;28;20048;-63
2021/03/16 06:41:08;;;;;;;12.32;4.68;;;4.20;87.00;;;;;;5068239;28;20059;-63
2021/03/16 06:44:02;;;;;;;14.27;4.60;;;4.40;87.30;;;;;;5062193;28;20186;-63
2021/03/16 06:47:00;;;;;;;11.80;4.22;;;4.50;87.30;;;;;;5050595;28;20095;-63
2021/03/16 06:49:45;;;;;;;12.60;4.68;;;4.70;87.00;;;;;;5058341;28;20077;-63
2021/03/16 06:52:34;;;;;;;11.65;4.03;;;4.80;87.20;;;;;;5053577;28;20067;-63
2021/03/16 06:55:19;;;;;;;11.65;4.45;;;4.90;86.40;;;;;;5068567;28;20051;-63
2021/03/16 06:58:08;;;;;;;13.68;5.25;;;5.00;87.10;;;;;;5055680;28;20502;-63
2021/03/16 07:01:13;;;;;;;12.55;4.57;;;5.20;86.30;;;;;;5050457;28;20060;-64
2021/03/16 07:04:21;;;;;;;11.00;4.47;;;5.30;85.80;;;;;;5068547;28;20186;-63
2021/03/16 07:07:09;;;;;;;12.30;4.28;;;5.40;85.80;;;;;;5056100;28;20102;-64
2021/03/16 07:09:55;;;;;;;14.90;4.90;;;5.50;85.90;;;;;;5066656;28;20158;-63
2021/03/16 07:12:41;;;;;;;11.20;4.70;;;5.60;84.90;;;;;;5068518;28;20105;-64
2021/03/16 07:15:27;;;;;;;13.32;4.43;;;5.80;84.10;;;;;;5072297;28;20051;-63
2021/03/16 07:18:13;;;;;;;10.43;4.35;;;5.80;84.60;;;;;;5060971;28;20063;-63
2021/03/16 07:21:04;;;;;;;12.27;5.43;;;5.90;83.20;;;;;;5064943;28;20059;-63
2021/03/16 07:23:52;;;;;;;13.52;4.90;;;6.10;83.80;;;;;;5074602;28;20185;-63
2021/03/16 07:26:38;;;;;;;9.90;4.35;;;6.20;82.40;;;;;;5073543;28;20605;-64
2021/03/16 07:29:25;;;;;;;11.95;4.72;;;6.30;81.90;;;;;;5068551;28;20047;-63
2021/03/16 07:32:18;;;;;;;11.57;4.93;;;6.40;81.10;;;;;;5060931;28;20056;-63
2021/03/16 07:35:04;;;;;;;10.88;4.78;;;6.50;80.50;;;;;;5052080;28;20052;-63
2021/03/16 07:37:50;;;;;;;12.15;4.75;;;6.50;80.10;;;;;;5046779;28;20044;-63
2021/03/16 07:40:38;;;;;;;10.25;4.82;;;6.60;80.40;;;;;;5061954;28;20185;-63
2021/03/16 07:43:36;;;;;;;11.70;4.68;;;6.70;79.50;;;;;;5057114;28;20139;-63
2021/03/16 07:46:21;;;;;;;8.48;4.25;;;6.80;79.70;;;;;;5064976;28;20064;-63
2021/03/16 07:49:07;;;;;;;10.23;4.50;;;6.90;78.80;;;;;;5074098;28;20435;-63
2021/03/16 07:51:53;;;;;;;13.00;4.90;;;7.00;78.10;;;;;;5070061;28;20056;-63
2021/03/16 07:54:41;;;;;;;12.40;5.43;;;7.10;76.70;;;;;;5071292;28;20059;-63
2021/03/16 07:57:31;;;;;;;12.85;5.07;;;7.20;77.10;;;;;;5070010;28;20051;-63
2021/03/16 08:00:27;;;;;;;15.60;5.40;;;7.30;77.50;;;;;;5054902;28;20511;-64
2021/03/16 08:03:22;;;;;;;14.85;5.03;;;7.40;77.30;;;;;;5040882;28;20169;-64
2021/03/16 08:06:08;;;;;;;11.75;4.88;;;7.50;75.60;;;;;;5063252;28;20431;-63
2021/03/16 08:08:53;;;;;;;12.40;5.28;;;7.60;76.30;;;;;;5070362;28;20210;-64
2021/03/16 08:11:41;;;;;;;13.25;5.20;;;7.70;76.00;;;;;;5070623;28;20089;-63
2021/03/16 08:14:29;;;;;;;9.43;4.43;;;7.70;74.90;;;;;;5055910;28;20055;-64
2021/03/16 08:17:28;;;;;;;16.58;5.05;;;7.80;74.30;;;;;;5067371;28;20051;-64
2021/03/16 08:20:27;;;;;;;11.30;4.57;;;7.80;74.50;;;;;;5059392;28;20052;-64
2021/03/16 08:23:13;;;;;;;11.55;4.55;;;7.90;74.10;;;;;;5056472;28;20522;-64
2021/03/16 08:26:03;;;;;;;11.05;4.75;;;8.10;74.60;;;;;;5069008;28;20063;-64
2021/03/16 08:28:49;;;;;;;12.48;5.30;;;8.20;72.80;;;;;;5069568;28;20183;-64
2021/03/16 08:31:42;;;;;;;12.25;4.90;;;8.30;73.20;;;;;;5066965;28;20059;-63
2021/03/16 08:34:30;;;;;;;14.55;4.72;;;8.40;71.80;;;;;;5068982;28;20051;-63
2021/03/16 08:37:36;;;;;;;13.07;5.80;;;8.40;72.10;;;;;;5070894;28;20043;-63
2021/03/16 08:40:35;;;;;;;10.88;5.05;;;8.50;71.00;;;;;;5069013;28;20055;-63
2021/03/16 08:43:21;;;;;;;11.85;4.25;;;8.40;71.00;;;;;;5039826;28;20063;-64
2021/03/16 08:46:10;;;;;;;14.27;5.70;;;8.50;70.90;;;;;;5049601;28;20613;-63
2021/03/16 08:48:55;;;;;;;12.63;5.05;;;8.60;72.50;;;;;;5044483;28;20128;-65
2021/03/16 08:51:40;;;;;;;14.02;5.30;;;8.70;70.30;;;;;;5040279;28;20396;-63
2021/03/16 08:54:29;;;;;;;10.48;4.78;;;8.80;70.70;;;;;;5032757;28;20048;-64
2021/03/16 08:57:19;;;;;;;15.55;5.57;;;9.00;70.50;;;;;;5046222;28;20052;-64
2021/03/16 09:00:05;;;;;;;10.98;5.20;;;9.10;70.30;;;;;;5051097;28;20530;-64
2021/03/16 09:02:50;;;;;;;11.20;5.57;;;9.20;70.00;;;;;;5038332;28;20056;-64
2021/03/16 09:05:37;;;;;;;11.50;4.70;;;9.30;66.60;;;;;;5048687;28;20055;-64
2021/03/16 09:08:23;;;;;;;14.15;6.00;;;9.40;66.30;;;;;;5041763;28;20059;-64
2021/03/16 09:11:08;;;;;;;11.75;5.13;;;9.50;67.00;;;;;;5035920;28;20631;-64
2021/03/16 09:13:53;;;;;;;12.63;4.93;;;9.60;65.70;;;;;;5044233;28;20080;-64
2021/03/16 09:16:50;;;;;;;14.55;5.57;;;9.80;66.10;;;;;;5036665;28;20060;-64
2021/03/16 09:19:36;;;;;;;10.60;4.88;;;9.90;66.00;;;;;;5018891;28;20098;-64
2021/03/16 09:22:21;;;;;;;12.00;5.25;;;10.00;65.60;;;;;;5043199;28;20056;-64
2021/03/16 09:25:09;;;;;;;12.02;5.63;;;10.10;65.50;;;;;;5047925;28;20051;-64
2021/03/16 09:28:01;;;;;;;15.07;5.93;;;10.10;62.90;;;;;;5043281;28;20059;-64
2021/03/16 09:30:55;;;;;;;13.38;5.07;;;10.30;63.10;;;;;;5040955;28;20187;-64
2021/03/16 09:33:42;;;;;;;10.20;4.55;;;10.40;62.50;;;;;;5045031;28;20052;-64
2021/03/16 09:36:29;;;;;;;11.02;4.65;;;10.70;62.40;;;;;;5043183;28;20051;-64
2021/03/16 09:39:29;;;;;;;10.10;4.47;;;10.90;59.20;;;;;;4982929;28;20050;-63
2021/03/16 09:42:09;;;;;;;9.90;4.30;;;11.00;58.00;;;;;;4973695;28;20064;-64
2021/03/16 09:44:39;;;;;;;11.50;4.90;;;11.20;55.50;;;;;;5004417;28;20065;-64
2021/03/16 09:47:07;;;;;;;10.63;3.92;;;11.20;55.00;;;;;;5003332;28;20561;-64
2021/03/16 09:49:40;;;;;;;8.48;3.95;;;11.30;54.70;;;;;;5003431;28;20062;-64
2021/03/16 09:52:11;;;;;;;11.23;4.70;;;11.50;55.20;;;;;;5003321;28;20049;-64
2021/03/16 09:54:38;;;;;;;8.65;3.75;;;11.70;54.30;;;;;;5004528;28;20052;-63
2021/03/16 09:57:13;;;;;;;12.07;5.13;;;11.80;53.30;;;;;;5002387;28;20057;-65
2021/03/16 09:59:41;;;;;;;9.63;4.43;;;11.80;53.90;;;;;;5002143;28;20045;-64
2021/03/16 10:02:09;;;;;;;12.32;5.20;;;11.90;53.80;;;;;;4987485;28;20050;-64
2021/03/16 10:04:50;;;;;;;8.05;3.65;;;12.00;53.60;;;;;;5008851;28;20124;-64
2021/03/16 10:07:26;;;;;;;9.88;3.95;;;12.00;53.20;;;;;;5006026;28;20045;-64
2021/03/16 10:09:54;;;;;;;9.10;4.00;;;12.10;53.50;;;;;;5002177;28;20050;-64
2021/03/16 10:12:22;;;;;;;7.43;3.58;;;12.10;53.10;;;;;;5005539;28;20065;-64
2021/03/16 10:14:51;;;;;;;8.80;3.80;;;12.10;53.40;;;;;;5002838;28;21001;-64
2021/03/16 10:17:35;;;;;;;9.05;3.90;;;12.10;55.00;;;;;;5025679;28;20139;-64
2021/03/16 10:20:07;;;;;;;7.80;3.53;;;12.20;53.60;;;;;;5044802;28;20120;-64
2021/03/16 10:22:35;;;;;;;8.10;3.75;;;12.10;52.20;;;;;;5033411;28;20048;-64
2021/03/16 10:25:10;;;;;;;7.88;3.75;;;12.10;53.50;;;;;;5024474;28;20048;-64
2021/03/16 10:27:36;;;;;;;7.85;4.07;;;12.00;52.30;;;;;;5044806;28;20056;-64
2021/03/16 10:30:06;;;;;;;8.98;3.63;;;11.90;52.50;;;;;;5036945;28;20080;-64
2021/03/16 10:32:32;;;;;;;9.50;3.53;;;11.90;53.90;;;;;;5031314;28;20048;-64
2021/03/16 10:34:59;;;;;;;8.88;3.67;;;11.90;53.50;;;;;;5029166;28;20053;-64
2021/03/16 10:37:26;;;;;;;8.80;4.13;;;11.80;53.70;;;;;;5027544;28;20072;-65
2021/03/16 10:39:59;;;;;;;10.13;4.47;;;11.70;54.70;;;;;;5040823;28;20052;-64
2021/03/16 10:42:26;;;;;;;;;;;11.70;54.00;;;;;;5030628;28;20060;-64
2021/03/16 10:44:52;;;;;;;7.20;2.65;;;11.70;52.60;;;;;;5027725;28;20379;-65
2021/03/16 10:47:19;;;;;;;7.70;3.55;;;11.50;52.50;;;;;;5046943;28;20049;-64
2021/03/16 10:49:45;;;;;;;8.90;3.53;;;11.60;53.70;;;;;;5050968;28;20089;-65
2021/03/16 10:52:12;;;;;;;8.23;3.60;;;11.80;53.20;;;;;;5050651;28;20118;-64
2021/03/16 10:54:39;;;;;;;7.72;3.60;;;11.80;52.20;;;;;;5032590;28;20049;-64
2021/03/16 10:57:06;;;;;;;9.27;2.95;;;12.00;52.30;;;;;;5045659;28;20056;-64
2021/03/16 10:59:32;;;;;;;7.93;3.88;;;12.00;52.60;;;;;;5014159;28;20065;-65
2021/03/16 11:01:59;;;;;;;8.55;3.70;;;12.00;51.90;;;;;;5050718;28;20037;-65
2021/03/16 11:04:26;;;;;;;10.82;3.90;;;12.10;52.60;;;;;;5050958;28;20041;-65
2021/03/16 11:06:52;;;;;;;11.38;3.75;;;12.20;51.50;;;;;;5043576;28;20052;-64
2021/03/16 11:09:19;;;;;;;7.18;3.42;;;12.30;51.60;;;;;;5028893;28;20057;-65
2021/03/16 11:11:45;;;;;;;7.68;3.45;;;12.50;52.10;;;;;;5050365;28;20807;-65
2021/03/16 11:14:14;;;;;;;8.75;3.83;;;12.50;51.30;;;;;;5050114;28;20132;-64
2021/03/16 11:16:40;;;;;;;7.28;3.03;;;12.40;51.50;;;;;;5047856;28;20041;-65
2021/03/16 11:19:07;;;;;;;9.25;3.63;;;12.40;50.40;;;;;;5049726;28;20045;-65
2021/03/16 11:21:34;;;;;;;6.22;3.08;;;12.40;50.50;;;;;;5049632;28;20041;-64
2021/03/16 11:24:01;;;;;;;8.93;3.60;;;12.60;51.90;;;;;;5029788;28;20128;-64
2021/03/16 11:26:27;;;;;;;9.52;3.55;;;12.90;50.60;;;;;;5044945;28;20114;-64
2021/03/16 11:28:54;;;;;;;6.25;3.25;;;13.00;48.90;;;;;;5052342;28;20763;-65
2021/03/16 11:31:21;;;;;;;8.43;3.53;;;13.00;49.10;;;;;;5041955;28;20051;-64
2021/03/16 11:34:09;;;;;;;9.43;3.55;;;12.80;49.20;;;;;;5051129;28;20063;-65
2021/03/16 11:36:55;;;;;;;6.65;3.47;;;12.50;49.20;;;;;;5049579;28;20499;-64
2021/03/16 11:39:41;;;;;;;9.10;4.18;;;12.40;50.90;;;;;;5042810;28;20055;-67
2021/03/16 11:42:27;;;;;;;9.50;4.25;;;12.40;50.60;;;;;;5045147;28;20553;-64
2021/03/16 11:45:12;;;;;;;8.73;4.05;;;12.30;50.50;;;;;;5048830;28;20052;-66
2021/03/16 11:47:57;;;;;;;6.65;3.40;;;12.20;51.30;;;;;;5047290;28;20071;-64
2021/03/16 11:50:43;;;;;;;10.07;3.53;;;12.20;51.00;;;;;;5044324;28;20063;-64
2021/03/16 11:53:29;;;;;;;9.30;3.55;;;12.20;50.60;;;;;;5033635;28;20055;-65
2021/03/16 11:56:17;;;;;;;7.25;3.10;;;12.10;51.10;;;;;;5031288;28;20416;-65
2021/03/16 11:59:02;;;;;;;7.60;3.55;;;12.10;51.70;;;;;;5040486;28;20051;-64
2021/03/16 12:01:48;;;;;;;7.75;3.65;;;12.00;52.00;;;;;;5037743;28;20412;-64
2021/03/16 12:04:35;;;;;;;9.38;3.60;;;12.00;52.80;;;;;;5046813;28;20130;-65
2021/03/16 12:07:28;;;;;;;8.63;3.47;;;12.00;52.80;;;;;;5053092;28;20075;-65
2021/03/16 12:10:19;;;;;;;8.15;3.80;;;12.00;53.20;;;;;;5041313;28;20047;-65
2021/03/16 12:13:16;;;;;;;9.82;3.60;;;12.20;52.90;;;;;;5028056;28;20156;-64
2021/03/16 12:16:01;;;;;;;11.13;3.28;;;12.10;51.70;;;;;;5041596;28;20538;-65
2021/03/16 12:18:46;;;;;;;7.57;3.65;;;11.80;52.00;;;;;;5042845;28;20103;-67
2021/03/16 12:21:31;;;;;;;8.63;3.78;;;11.80;53.30;;;;;;5049096;28;20091;-68
2021/03/16 12:24:17;;;;;;;6.82;3.10;;;11.90;52.50;;;;;;5046993;28;20064;-69
2021/03/16 12:27:03;;;;;;;7.13;4.07;;;12.00;52.60;;;;;;5044589;28;20052;-67
2021/03/16 12:29:48;;;;;;;6.55;2.90;;;12.00;52.20;;;;;;5046479;28;20064;-67
2021/03/16 12:32:41;;;;;;;8.65;3.22;;;11.90;52.00;;;;;;5042814;28;20130;-67
2021/03/16 12:35:26;;;;;;;6.38;2.80;;;11.80;53.20;;;;;;5044779;28;20486;-64
2021/03/16 12:38:12;;;;;;;8.27;3.10;;;11.70;53.10;;;;;;5034035;28;20064;-64
2021/03/16 12:40:57;;;;;;;7.03;2.70;;;11.60;52.90;;;;;;5033690;28;20060;-64
2021/03/16 12:43:42;;;;;;;9.20;2.92;;;11.70;52.30;;;;;;5036830;28;20051;-64
2021/03/16 12:46:28;;;;;;;6.55;2.60;;;11.90;52.80;;;;;;5037162;28;20057;-65
2021/03/16 12:49:13;;;;;;;5.13;2.38;;;12.20;51.80;;;;;;5021725;28;20055;-69
2021/03/16 12:51:59;;;;;;;6.28;1.98;;;12.20;51.60;;;;;;5041712;28;20055;-63
2021/03/16 12:54:44;;;;;;;7.30;2.25;;;12.20;52.30;;;;;;5043260;28;20828;-64
2021/03/16 12:57:29;;;;;;;7.40;2.55;;;12.20;52.40;;;;;;5043373;28;20174;-64
2021/03/16 13:00:15;;;;;;;6.40;2.80;;;12.40;52.30;;;;;;5047226;28;20553;-62
2021/03/16 13:03:02;;;;;;;9.57;2.63;;;12.60;52.20;;;;;;5042193;28;20063;-63
2021/03/16 13:05:47;;;;;;;5.68;1.98;;;12.80;52.60;;;;;;5037957;28;20056;-63
2021/03/16 13:08:32;;;;;;;7.40;1.95;;;12.80;51.40;;;;;;5041039;28;21891;-62
2021/03/16 13:11:18;;;;;;;5.97;2.58;;;12.70;50.80;;;;;;5041449;28;20063;-64
2021/03/16 13:14:03;;;;;;;6.05;2.67;;;12.60;51.50;;;;;;5042658;28;20056;-63
2021/03/16 13:16:48;;;;;;;5.93;2.20;;;12.30;51.80;;;;;;5042447;28;20054;-63
2021/03/16 13:19:34;;;;;;;6.45;2.13;;;12.10;51.70;;;;;;5043587;28;20052;-62
2021/03/16 13:22:19;;;;;;;5.03;2.08;;;12.10;52.50;;;;;;5039279;28;20883;-63
2021/03/16 13:25:05;;;;;;;5.22;1.92;;;12.80;51.50;;;;;;5042492;28;20052;-63
2021/03/16 13:27:51;;;;;;;5.35;1.80;;;13.50;50.60;;;;;;5024292;28;20523;-63
2021/03/16 13:30:36;;;;;;;3.50;2.35;;;14.30;48.10;;;;;;5040158;28;20604;-63
2021/03/16 13:33:22;;;;;;;4.07;2.08;;;15.10;47.10;;;;;;5041112;28;20064;-63
2021/03/16 13:36:08;;;;;;;3.28;1.58;;;15.80;44.80;;;;;;5040668;28;20072;-62
2021/03/16 13:38:54;;;;;;;3.60;1.27;;;15.90;42.70;;;;;;5041184;28;20194;-63
2021/03/16 13:41:40;;;;;;;3.63;1.42;;;15.40;42.30;;;;;;5027496;28;20072;-62
2021/03/16 13:44:25;;;;;;;3.20;1.42;;;15.10;43.00;;;;;;5047131;28;20059;-63
2021/03/16 13:47:11;;;;;;;4.40;1.27;;;15.30;43.30;;;;;;5062160;28;20171;-63
2021/03/16 13:49:57;;;;;;;2.83;1.50;;;15.80;44.00;;;;;;5058956;28;20075;-63
2021/03/16 13:52:43;;;;;;;3.42;1.38;;;16.00;43.90;;;;;;5045882;28;20101;-64
2021/03/16 13:55:29;;;;;;;3.63;1.80;;;16.50;43.40;;;;;;5061096;28;20122;-63
2021/03/16 13:58:16;;;;;;;4.50;1.50;;;16.20;43.70;;;;;;5049589;28;20063;-63
2021/03/16 14:01:01;;;;;;;6.53;1.30;;;16.00;43.50;;;;;;5055416;28;20044;-65
2021/03/16 14:03:47;;;;;;;2.85;1.65;;;15.90;43.50;;;;;;5044752;28;20055;-63
2021/03/16 14:06:34;;;;;;;3.70;1.67;;;16.20;43.80;;;;;;5038239;28;20071;-62